createdAt,value
2022-12-03T00:00:51.899Z,12.50
2022-12-03T00:03:19.167Z,13.43
2022-12-03T00:05:49.165Z,13.23
2022-12-03T00:08:16.811Z,10.45
2022-12-03T00:10:44.124Z,11.17
2022-12-03T00:13:11.294Z,11.37
2022-12-03T00:15:38.436Z,13.67
2022-12-03T00:18:08.379Z,13.10
2022-12-03T00:20:38.600Z,10.80
2022-12-03T00:23:06.094Z,11.38
2022-12-03T00:25:33.379Z,12.07
2022-12-03T00:28:00.579Z,13.47
2022-12-03T00:30:27.641Z,11.87
2022-12-03T00:32:54.990Z,13.43
2022-12-03T00:35:22.184Z,11.27
2022-12-03T00:37:49.230Z,10.40
2022-12-03T00:40:16.374Z,9.43
2022-12-03T00:42:43.594Z,9.93
2022-12-03T00:45:10.838Z,11.43
2022-12-03T00:47:37.989Z,9.40
2022-12-03T00:50:06.184Z,11.87
2022-12-03T00:52:33.252Z,10.37
2022-12-03T00:55:00.431Z,11.33
2022-12-03T00:57:27.587Z,9.27
2022-12-03T00:59:54.662Z,12.73
2022-12-03T01:02:21.921Z,10.50
2022-12-03T01:04:49.204Z,10.27
2022-12-03T01:07:16.349Z,11.23
2022-12-03T01:09:43.579Z,11.80
2022-12-03T01:12:12.127Z,10.27
2022-12-03T01:14:39.227Z,9.63
2022-12-03T01:17:07.136Z,16.40
2022-12-03T01:19:35.779Z,13.60
2022-12-03T01:22:02.894Z,11.70
2022-12-03T01:24:30.225Z,11.20
2022-12-03T01:26:57.835Z,14.27
2022-12-03T01:29:24.972Z,14.20
2022-12-03T01:32:10.736Z,14.50
2022-12-03T01:34:37.999Z,12.90
2022-12-03T01:37:05.383Z,16.37
2022-12-03T01:39:38.370Z,15.33
2022-12-03T01:42:08.766Z,14.00
2022-12-03T01:44:36.789Z,16.73
2022-12-03T01:47:06.055Z,16.00
2022-12-03T01:49:55.492Z,12.30
2022-12-03T01:52:25.001Z,12.53
2022-12-03T01:54:56.693Z,13.43
2022-12-03T01:57:26.886Z,16.27
2022-12-03T01:59:54.609Z,11.15
2022-12-03T02:02:31.392Z,15.57
2022-12-03T02:04:58.718Z,14.37
2022-12-03T02:07:29.709Z,15.17
2022-12-03T02:09:58.460Z,13.90
2022-12-03T02:12:32.370Z,15.53
2022-12-03T02:14:59.722Z,15.63
2022-12-03T02:17:27.154Z,14.27
2022-12-03T02:19:54.717Z,15.90
2022-12-03T02:22:23.501Z,17.57
2022-12-03T02:25:03.445Z,14.67
2022-12-03T02:27:30.701Z,14.65
2022-12-03T02:29:57.781Z,17.10
2022-12-03T02:32:24.759Z,18.33
2022-12-03T02:34:52.575Z,13.13
2022-12-03T02:37:25.429Z,14.50
2022-12-03T02:39:55.397Z,12.60
2022-12-03T02:42:37.874Z,15.00
2022-12-03T02:45:14.053Z,12.90
2022-12-03T02:47:43.324Z,12.67
2022-12-03T02:50:11.616Z,14.50
2022-12-03T02:52:38.816Z,14.27
2022-12-03T02:55:06.411Z,16.20
2022-12-03T02:57:34.787Z,17.20
2022-12-03T03:00:02.217Z,16.90
2022-12-03T03:02:29.385Z,13.67
2022-12-03T03:04:56.551Z,10.73
2022-12-03T03:07:23.821Z,13.40
2022-12-03T03:09:50.885Z,18.57
2022-12-03T03:12:18.117Z,12.50
2022-12-03T03:14:45.438Z,12.70
2022-12-03T03:17:12.549Z,13.43
2022-12-03T03:19:39.632Z,12.43
2022-12-03T03:22:06.697Z,15.60
2022-12-03T03:24:33.660Z,12.17
2022-12-03T03:27:00.866Z,12.47
2022-12-03T03:29:28.016Z,11.00
2022-12-03T03:31:55.312Z,15.33
2022-12-03T03:34:22.544Z,11.47
2022-12-03T03:36:49.688Z,12.00
2022-12-03T03:39:16.863Z,12.57
2022-12-03T03:41:44.045Z,13.17
2022-12-03T03:44:11.198Z,8.77
2022-12-03T03:46:38.506Z,12.23
2022-12-03T03:49:07.988Z,10.57
2022-12-03T03:51:35.616Z,9.70
2022-12-03T03:54:03.245Z,11.77
2022-12-03T03:56:30.428Z,12.40
2022-12-03T03:58:57.637Z,10.83
2022-12-03T04:01:24.734Z,10.10
2022-12-03T04:03:53.824Z,12.47
2022-12-03T04:06:21.013Z,14.03
2022-12-03T04:08:48.030Z,10.47
2022-12-03T04:11:33.756Z,12.30
2022-12-03T04:14:00.750Z,10.73
2022-12-03T04:16:28.103Z,9.90
2022-12-03T04:18:55.611Z,10.57
2022-12-03T04:21:42.038Z,12.23
2022-12-03T04:24:10.494Z,13.03
2022-12-03T04:26:56.299Z,14.33
2022-12-03T04:29:23.640Z,12.23
2022-12-03T04:32:16.999Z,10.70
2022-12-03T04:35:02.959Z,13.93
2022-12-03T04:37:30.067Z,13.13
2022-12-03T04:39:57.344Z,17.67
2022-12-03T04:42:24.486Z,15.70
2022-12-03T04:44:51.987Z,14.80
2022-12-03T04:47:20.173Z,15.23
2022-12-03T04:49:49.527Z,12.90
2022-12-03T04:52:17.752Z,15.83
2022-12-03T04:54:45.256Z,14.87
2022-12-03T04:57:12.517Z,15.70
2022-12-03T04:59:39.672Z,12.87
2022-12-03T05:02:06.985Z,17.03
2022-12-03T05:04:34.783Z,14.40
2022-12-03T05:07:02.100Z,18.03
2022-12-03T05:09:29.284Z,15.67
2022-12-03T05:11:56.402Z,17.70
2022-12-03T05:14:23.452Z,18.80
2022-12-03T05:16:50.802Z,20.20
2022-12-03T05:19:18.099Z,18.03
2022-12-03T05:21:45.191Z,18.63
2022-12-03T05:24:12.393Z,16.17
2022-12-03T05:26:39.643Z,17.03
2022-12-03T05:29:06.670Z,18.77
2022-12-03T05:31:33.877Z,18.43
2022-12-03T05:34:01.310Z,17.60
2022-12-03T05:36:28.366Z,18.87
2022-12-03T05:38:55.482Z,17.33
2022-12-03T05:41:41.495Z,22.03
2022-12-03T05:44:08.711Z,19.67
2022-12-03T05:46:36.379Z,19.63
2022-12-03T05:49:03.545Z,17.13
2022-12-03T05:51:30.700Z,16.90
2022-12-03T05:53:57.714Z,18.40
2022-12-03T05:56:24.849Z,18.63
2022-12-03T05:58:51.925Z,15.27
2022-12-03T06:01:18.928Z,18.07
2022-12-03T06:03:46.234Z,17.17
2022-12-03T06:06:13.589Z,17.00
2022-12-03T06:08:40.623Z,15.53
2022-12-03T06:11:07.846Z,16.83
2022-12-03T06:13:35.068Z,12.97
2022-12-03T06:16:02.520Z,13.83
2022-12-03T06:18:29.859Z,12.43
2022-12-03T06:20:57.056Z,16.10
2022-12-03T06:23:24.072Z,11.47
2022-12-03T06:25:51.211Z,15.57
2022-12-03T06:28:18.343Z,15.07
2022-12-03T06:30:45.455Z,12.33
2022-12-03T06:33:12.693Z,12.43
2022-12-03T06:35:39.786Z,12.93
2022-12-03T06:38:06.901Z,16.03
2022-12-03T06:40:34.390Z,16.33
2022-12-03T06:43:01.651Z,15.53
2022-12-03T06:45:28.659Z,16.07
2022-12-03T06:47:55.792Z,13.43
2022-12-03T06:50:22.964Z,14.10
2022-12-03T06:52:49.975Z,13.00
2022-12-03T06:55:17.330Z,15.00
2022-12-03T06:57:44.391Z,15.00
2022-12-03T07:00:12.069Z,13.97
2022-12-03T07:02:39.457Z,13.70
2022-12-03T07:05:07.053Z,12.07
2022-12-03T07:07:37.354Z,13.33
2022-12-03T07:10:08.966Z,13.87
2022-12-03T07:12:36.353Z,15.63
2022-12-03T07:15:03.678Z,13.83
2022-12-03T07:17:30.891Z,12.80
2022-12-03T07:19:58.225Z,12.80
2022-12-03T07:22:25.329Z,12.93
2022-12-03T07:24:53.286Z,11.80
2022-12-03T07:27:20.452Z,14.10
2022-12-03T07:29:47.662Z,15.57
2022-12-03T07:32:14.890Z,12.70
2022-12-03T07:34:42.002Z,13.57
2022-12-03T07:37:12.150Z,15.30
2022-12-03T07:39:40.894Z,14.53
2022-12-03T07:42:09.525Z,11.27
2022-12-03T07:44:38.067Z,15.67
2022-12-03T07:47:16.508Z,15.00
2022-12-03T07:49:43.746Z,13.00
2022-12-03T07:52:10.904Z,11.87
2022-12-03T07:54:38.023Z,12.87
2022-12-03T07:57:05.371Z,10.77
2022-12-03T07:59:32.537Z,10.60
2022-12-03T08:01:59.713Z,11.57
2022-12-03T08:04:26.854Z,13.73
2022-12-03T08:06:54.089Z,10.80
2022-12-03T08:09:21.217Z,9.63
2022-12-03T08:11:48.791Z,11.97
2022-12-03T08:14:17.177Z,13.20
2022-12-03T08:16:45.432Z,12.90
2022-12-03T08:19:16.388Z,11.37
2022-12-03T08:21:43.769Z,9.77
2022-12-03T08:24:19.389Z,12.03
2022-12-03T08:26:47.166Z,11.83
2022-12-03T08:29:19.054Z,9.90
2022-12-03T08:31:52.462Z,10.27
2022-12-03T08:34:20.484Z,10.50
2022-12-03T08:36:48.762Z,13.23
2022-12-03T08:39:38.024Z,11.77
2022-12-03T08:42:23.424Z,10.23
2022-12-03T08:44:50.982Z,11.07
2022-12-03T08:47:24.459Z,12.17
2022-12-03T08:49:55.761Z,10.27
2022-12-03T08:52:23.760Z,13.03
2022-12-03T08:54:55.406Z,9.33
2022-12-03T08:57:28.673Z,10.37
2022-12-03T09:00:01.318Z,8.50
2022-12-03T09:02:33.320Z,10.13
2022-12-03T09:05:14.328Z,9.50
2022-12-03T09:07:41.535Z,8.17
2022-12-03T09:10:09.119Z,9.17
2022-12-03T09:12:36.445Z,7.87
2022-12-03T09:15:03.763Z,12.93
2022-12-03T09:17:31.077Z,8.97
2022-12-03T09:19:58.159Z,10.80
2022-12-03T09:22:25.430Z,7.93
2022-12-03T09:24:52.922Z,6.97
2022-12-03T09:27:20.985Z,7.53
2022-12-03T09:29:48.337Z,9.17
2022-12-03T09:32:18.823Z,7.47
2022-12-03T09:34:46.487Z,8.47
2022-12-03T09:37:13.833Z,11.63
2022-12-03T09:39:40.944Z,9.70
2022-12-03T09:42:08.082Z,11.67
2022-12-03T09:44:36.175Z,9.10
2022-12-03T09:47:03.921Z,11.83
2022-12-03T09:49:32.866Z,8.00
2022-12-03T09:52:01.741Z,9.43
2022-12-03T09:54:29.461Z,7.83
2022-12-03T09:56:57.174Z,10.40
2022-12-03T09:59:26.954Z,9.43
2022-12-03T10:01:54.332Z,7.63
2022-12-03T10:04:21.539Z,8.70
2022-12-03T10:06:48.839Z,7.88
2022-12-03T10:09:20.969Z,7.88
2022-12-03T10:11:58.387Z,9.38
2022-12-03T10:14:25.563Z,10.85
2022-12-03T10:16:52.707Z,9.55
2022-12-03T10:19:26.491Z,8.50
2022-12-03T10:21:55.741Z,7.97
2022-12-03T10:24:30.473Z,7.50
2022-12-03T10:27:24.513Z,9.60
2022-12-03T10:29:59.149Z,10.38
2022-12-03T10:32:43.292Z,9.55
2022-12-03T10:35:18.078Z,9.18
2022-12-03T10:38:04.777Z,12.68
2022-12-03T10:40:36.782Z,10.98
2022-12-03T10:43:19.306Z,9.18
2022-12-03T10:45:47.111Z,9.70
2022-12-03T10:48:20.313Z,7.75
2022-12-03T10:51:12.191Z,8.57
2022-12-03T10:53:39.532Z,9.77
2022-12-03T10:56:07.769Z,8.63
2022-12-03T10:58:36.568Z,6.40
2022-12-03T11:01:32.409Z,8.20
2022-12-03T11:04:03.394Z,5.88
2022-12-03T11:06:31.614Z,6.47
2022-12-03T11:09:05.261Z,6.13
2022-12-03T11:11:36.104Z,6.82
2022-12-03T11:14:03.852Z,8.95
2022-12-03T11:16:40.567Z,9.27
2022-12-03T11:19:13.699Z,7.72
2022-12-03T11:22:06.090Z,6.32
2022-12-03T11:24:36.084Z,11.10
2022-12-03T11:27:07.048Z,8.60
2022-12-03T11:29:47.542Z,11.93
2022-12-03T11:35:00.941Z,8.07
2022-12-03T11:37:28.500Z,6.97
2022-12-03T11:39:56.625Z,7.88
2022-12-03T11:42:26.930Z,7.43
2022-12-03T11:45:06.254Z,15.25
2022-12-03T11:47:40.414Z,8.43
2022-12-03T11:50:41.664Z,8.65
2022-12-03T11:53:20.848Z,14.90
2022-12-03T11:56:04.044Z,8.05
2022-12-03T11:58:32.156Z,8.77
2022-12-03T12:01:01.702Z,7.28
2022-12-03T12:03:33.538Z,9.43
2022-12-03T12:06:16.035Z,8.27
2022-12-03T12:11:40.170Z,8.77
2022-12-03T12:14:11.422Z,11.13
2022-12-03T12:16:55.730Z,10.93
2022-12-03T12:19:39.823Z,9.82
2022-12-03T12:22:13.796Z,8.82
2022-12-03T12:24:47.811Z,9.65
2022-12-03T12:27:19.181Z,9.40
2022-12-03T12:29:53.250Z,8.90
2022-12-03T12:32:35.305Z,13.55
2022-12-03T12:35:21.966Z,11.38
2022-12-03T12:38:10.529Z,13.93
2022-12-03T12:40:45.832Z,11.73
2022-12-03T12:43:36.605Z,12.30
2022-12-03T12:46:45.998Z,11.13
2022-12-03T12:49:15.086Z,10.38
2022-12-03T12:51:46.356Z,11.07
2022-12-03T12:54:15.084Z,8.98
2022-12-03T12:56:46.840Z,10.45
2022-12-03T12:59:21.722Z,11.50
2022-12-03T13:01:49.703Z,12.07
2022-12-03T13:04:28.339Z,13.07
2022-12-03T13:06:55.611Z,9.88
2022-12-03T13:09:24.439Z,13.07
2022-12-03T13:11:58.213Z,16.35
2022-12-03T13:14:35.860Z,12.57
2022-12-03T13:17:17.497Z,16.25
2022-12-03T13:19:49.458Z,15.00
2022-12-03T13:23:23.260Z,36.78
2022-12-03T13:26:13.151Z,14.73
2022-12-03T13:28:50.080Z,17.95
2022-12-03T13:31:31.036Z,12.48
2022-12-03T13:34:16.843Z,14.75
2022-12-03T13:36:53.556Z,16.35
2022-12-03T13:42:31.691Z,14.95
2022-12-03T13:44:59.046Z,13.82
2022-12-03T13:47:26.219Z,12.77
2022-12-03T13:49:55.550Z,15.55
2022-12-03T13:52:25.158Z,15.40
2022-12-03T13:54:54.338Z,14.48
2022-12-03T13:57:22.366Z,14.23
2022-12-03T13:59:49.696Z,15.43
2022-12-03T14:02:16.937Z,16.52
2022-12-03T14:04:44.052Z,19.95
2022-12-03T14:07:11.281Z,14.70
2022-12-03T14:09:38.367Z,15.38
2022-12-03T14:12:24.719Z,15.25
2022-12-03T14:14:52.000Z,14.95
2022-12-03T14:17:22.860Z,19.00
2022-12-03T14:19:50.303Z,17.50
2022-12-03T14:22:19.263Z,16.02
2022-12-03T14:24:46.364Z,16.75
2022-12-03T14:27:13.865Z,12.70
2022-12-03T14:29:41.150Z,14.68
2022-12-03T14:32:09.524Z,13.98
2022-12-03T14:34:39.559Z,15.35
2022-12-03T14:37:06.960Z,15.10
2022-12-03T14:40:09.761Z,16.27
2022-12-03T14:42:37.121Z,15.52
2022-12-03T14:45:18.725Z,16.27
2022-12-03T14:48:03.945Z,14.98
2022-12-03T14:50:31.640Z,16.45
2022-12-03T14:53:12.147Z,18.13
2022-12-03T14:55:57.997Z,15.88
2022-12-03T15:03:07.949Z,15.68
2022-12-03T15:08:32.929Z,18.30
2022-12-03T15:11:17.628Z,16.35
2022-12-03T15:14:06.483Z,14.18
2022-12-03T15:16:53.682Z,18.70
2022-12-03T15:19:58.912Z,17.73
2022-12-03T15:22:31.421Z,15.80
2022-12-03T15:28:54.254Z,17.48
2022-12-03T15:31:50.998Z,20.23
2022-12-03T15:34:22.410Z,15.13
2022-12-03T15:36:51.443Z,15.77
2022-12-03T15:39:22.382Z,16.23
2022-12-03T15:41:57.829Z,16.58
2022-12-03T15:44:24.980Z,13.50
2022-12-03T15:46:52.079Z,15.73
2022-12-03T15:49:20.230Z,17.25
2022-12-03T15:51:47.282Z,17.25
2022-12-03T15:54:14.420Z,14.32
2022-12-03T15:56:44.091Z,17.50
2022-12-03T15:59:11.286Z,19.50
2022-12-03T16:01:40.933Z,16.50
2022-12-03T16:12:24.959Z,16.30
2022-12-03T16:14:57.185Z,14.07
2022-12-03T17:10:43.380Z,16.33
2022-12-03T17:22:48.476Z,16.53
2022-12-03T17:34:30.836Z,17.20
2022-12-03T17:40:48.503Z,15.17
2022-12-03T17:41:40.153Z,20.37
2022-12-03T17:44:07.391Z,18.03
2022-12-03T17:46:51.675Z,21.07
2022-12-03T17:56:52.119Z,17.97
2022-12-03T17:59:48.460Z,18.47
2022-12-03T18:02:17.306Z,17.87
2022-12-03T18:05:09.728Z,21.23
2022-12-03T18:07:37.245Z,20.67
2022-12-03T18:10:15.566Z,21.90
2022-12-03T18:12:45.573Z,19.03
2022-12-03T18:15:20.105Z,19.45
2022-12-03T18:18:12.388Z,20.10
2022-12-03T18:20:53.414Z,17.67
2022-12-03T18:27:15.130Z,18.60
2022-12-03T18:30:27.131Z,19.48
2022-12-03T18:37:46.654Z,18.73
2022-12-03T18:40:56.397Z,18.93
2022-12-03T18:48:24.910Z,20.73
2022-12-03T19:01:19.028Z,19.97
2022-12-03T19:05:11.767Z,21.98
2022-12-03T19:07:39.438Z,21.27
2022-12-03T19:22:31.734Z,21.70
2022-12-03T19:25:38.722Z,17.57
2022-12-03T19:33:33.903Z,21.53
2022-12-03T19:36:37.381Z,18.65
2022-12-03T19:39:04.957Z,23.52
2022-12-03T19:41:56.806Z,20.47
2022-12-03T19:45:27.067Z,20.00
2022-12-03T19:48:08.746Z,19.53
2022-12-03T19:54:59.395Z,17.30
2022-12-03T19:57:40.849Z,19.80
2022-12-03T20:00:09.908Z,17.23
2022-12-03T20:05:40.165Z,17.13
2022-12-03T20:08:46.332Z,17.23
2022-12-03T20:11:15.945Z,17.73
2022-12-03T20:13:44.896Z,20.30
2022-12-03T20:16:54.357Z,18.50
2022-12-03T20:19:45.282Z,21.87
2022-12-03T20:22:16.042Z,16.57
2022-12-03T20:25:38.350Z,20.90
2022-12-03T20:33:08.545Z,19.67
2022-12-03T20:43:42.523Z,19.23
2022-12-03T20:55:48.657Z,18.07
2022-12-03T20:58:39.256Z,19.77
2022-12-03T21:06:02.514Z,17.23
2022-12-03T21:08:41.033Z,18.90
2022-12-03T21:11:19.769Z,20.40
2022-12-03T21:20:15.499Z,18.42
2022-12-03T21:22:50.214Z,17.87
2022-12-03T21:25:22.275Z,19.03
2022-12-03T21:31:30.411Z,17.50
2022-12-03T21:38:19.753Z,17.25
2022-12-03T21:40:51.881Z,20.77
2022-12-03T21:44:30.720Z,20.77
2022-12-03T21:55:47.579Z,19.65
2022-12-03T22:02:57.006Z,13.63
2022-12-03T22:05:44.258Z,18.40
2022-12-03T22:12:17.859Z,19.33
2022-12-03T22:14:45.385Z,19.47
2022-12-03T22:17:18.169Z,21.07
2022-12-03T22:19:45.901Z,20.97
2022-12-03T22:23:34.595Z,22.00
2022-12-03T22:26:35.096Z,21.90
2022-12-03T22:36:34.739Z,21.13
2022-12-03T22:39:02.911Z,20.80
2022-12-03T22:41:31.508Z,19.80
2022-12-03T22:44:01.807Z,23.60
2022-12-03T22:46:29.185Z,21.23
2022-12-03T22:48:58.426Z,22.37
2022-12-03T22:51:27.889Z,23.37
2022-12-03T22:54:13.987Z,22.33
2022-12-03T22:56:41.518Z,21.30
2022-12-03T22:59:12.011Z,23.43
2022-12-03T23:04:07.553Z,24.87
2022-12-03T23:06:38.704Z,22.80
2022-12-03T23:09:09.432Z,21.47
2022-12-03T23:11:38.332Z,22.40
2022-12-03T23:17:56.329Z,21.17
2022-12-03T23:20:24.929Z,18.97
2022-12-03T23:26:54.488Z,20.17
2022-12-03T23:29:21.774Z,20.13
2022-12-03T23:31:48.960Z,22.80
2022-12-03T23:34:53.795Z,22.27
2022-12-03T23:38:10.190Z,20.53
2022-12-03T23:40:56.743Z,21.57
2022-12-03T23:52:46.120Z,21.23
